sensor_id;sensor_type;location;lat;lon;timestamp;P1;durP1;ratioP1;P2;durP2;ratioP2
12719;SDS011;6424;48.520;11.228;2023-03-23T00:02:30;6.17;;;5.13;;
12719;SDS011;6424;48.520;11.228;2023-03-23T00:05:15;8.43;;;5.93;;
12719;SDS011;6424;48.520;11.228;2023-03-23T00:07:56;6.07;;;5.30;;
12719;SDS011;6424;48.520;11.228;2023-03-23T00:10:37;7.70;;;5.40;;
12719;SDS011;6424;48.520;11.228;2023-03-23T00:13:19;6.20;;;5.20;;
12719;SDS011;6424;48.520;11.228;2023-03-23T00:16:00;5.90;;;5.20;;
12719;SDS011;6424;48.520;11.228;2023-03-23T00:18:43;6.50;;;5.03;;
12719;SDS011;6424;48.520;11.228;2023-03-23T00:21:29;6.97;;;4.70;;
12719;SDS011;6424;48.520;11.228;2023-03-23T00:24:15;7.97;;;5.40;;
12719;SDS011;6424;48.520;11.228;2023-03-23T00:26:57;6.60;;;5.10;;
12719;SDS011;6424;48.520;11.228;2023-03-23T00:29:38;8.17;;;5.40;;
12719;SDS011;6424;48.520;11.228;2023-03-23T00:32:21;7.43;;;5.47;;
12719;SDS011;6424;48.520;11.228;2023-03-23T00:35:07;6.93;;;4.67;;
12719;SDS011;6424;48.520;11.228;2023-03-23T00:37:48;6.40;;;5.40;;
12719;SDS011;6424;48.520;11.228;2023-03-23T00:40:29;6.20;;;4.90;;
12719;SDS011;6424;48.520;11.228;2023-03-23T00:43:10;6.33;;;5.23;;
12719;SDS011;6424;48.520;11.228;2023-03-23T00:45:54;6.47;;;4.70;;
12719;SDS011;6424;48.520;11.228;2023-03-23T00:48:36;5.70;;;5.03;;
12719;SDS011;6424;48.520;11.228;2023-03-23T00:51:24;5.90;;;4.60;;
12719;SDS011;6424;48.520;11.228;2023-03-23T00:54:05;6.10;;;5.27;;
12719;SDS011;6424;48.520;11.228;2023-03-23T00:56:47;6.70;;;5.13;;
12719;SDS011;6424;48.520;11.228;2023-03-23T00:59:28;5.37;;;4.80;;
12719;SDS011;6424;48.520;11.228;2023-03-23T01:02:09;5.93;;;5.20;;
12719;SDS011;6424;48.520;11.228;2023-03-23T01:04:50;5.80;;;5.20;;
12719;SDS011;6424;48.520;11.228;2023-03-23T01:07:32;6.00;;;5.10;;
12719;SDS011;6424;48.520;11.228;2023-03-23T01:10:13;6.23;;;5.30;;
12719;SDS011;6424;48.520;11.228;2023-03-23T01:12:58;9.03;;;5.43;;
12719;SDS011;6424;48.520;11.228;2023-03-23T01:15:41;5.03;;;4.53;;
12719;SDS011;6424;48.520;11.228;2023-03-23T01:18:22;6.23;;;4.97;;
12719;SDS011;6424;48.520;11.228;2023-03-23T01:21:13;6.17;;;5.53;;
12719;SDS011;6424;48.520;11.228;2023-03-23T01:23:56;5.90;;;5.30;;
12719;SDS011;6424;48.520;11.228;2023-03-23T01:26:24;6.93;;;5.33;;
12719;SDS011;6424;48.520;11.228;2023-03-23T01:29:06;6.67;;;5.23;;
12719;SDS011;6424;48.520;11.228;2023-03-23T01:31:32;8.03;;;5.60;;
12719;SDS011;6424;48.520;11.228;2023-03-23T01:34:16;6.10;;;5.03;;
12719;SDS011;6424;48.520;11.228;2023-03-23T01:36:57;5.50;;;4.90;;
12719;SDS011;6424;48.520;11.228;2023-03-23T01:39:38;5.43;;;4.93;;
12719;SDS011;6424;48.520;11.228;2023-03-23T01:42:21;4.97;;;4.30;;
12719;SDS011;6424;48.520;11.228;2023-03-23T01:48:09;6.80;;;4.37;;
12719;SDS011;6424;48.520;11.228;2023-03-23T01:51:18;6.50;;;4.00;;
12719;SDS011;6424;48.520;11.228;2023-03-23T01:54:02;5.23;;;4.70;;
12719;SDS011;6424;48.520;11.228;2023-03-23T01:56:51;5.37;;;4.60;;
12719;SDS011;6424;48.520;11.228;2023-03-23T01:59:38;5.07;;;4.33;;
12719;SDS011;6424;48.520;11.228;2023-03-23T02:02:22;5.83;;;4.60;;
12719;SDS011;6424;48.520;11.228;2023-03-23T02:05:07;6.60;;;4.73;;
12719;SDS011;6424;48.520;11.228;2023-03-23T02:07:51;5.13;;;4.37;;
12719;SDS011;6424;48.520;11.228;2023-03-23T02:10:33;6.63;;;5.10;;
12719;SDS011;6424;48.520;11.228;2023-03-23T02:13:15;6.63;;;5.20;;
12719;SDS011;6424;48.520;11.228;2023-03-23T02:16:12;6.27;;;5.40;;
12719;SDS011;6424;48.520;11.228;2023-03-23T02:31:30;5.37;;;4.70;;
12719;SDS011;6424;48.520;11.228;2023-03-23T02:37:00;5.57;;;5.00;;
12719;SDS011;6424;48.520;11.228;2023-03-23T02:39:49;5.90;;;5.13;;
12719;SDS011;6424;48.520;11.228;2023-03-23T02:42:36;7.63;;;5.40;;
12719;SDS011;6424;48.520;11.228;2023-03-23T02:45:20;8.10;;;5.77;;
12719;SDS011;6424;48.520;11.228;2023-03-23T02:48:03;6.60;;;5.00;;
12719;SDS011;6424;48.520;11.228;2023-03-23T02:50:45;7.90;;;5.77;;
12719;SDS011;6424;48.520;11.228;2023-03-23T02:53:31;6.30;;;5.33;;
12719;SDS011;6424;48.520;11.228;2023-03-23T02:56:16;6.97;;;4.60;;
12719;SDS011;6424;48.520;11.228;2023-03-23T02:58:58;6.87;;;4.93;;
12719;SDS011;6424;48.520;11.228;2023-03-23T03:04:21;6.20;;;4.90;;
12719;SDS011;6424;48.520;11.228;2023-03-23T03:07:00;7.50;;;5.27;;
12719;SDS011;6424;48.520;11.228;2023-03-23T03:12:50;6.00;;;5.07;;
12719;SDS011;6424;48.520;11.228;2023-03-23T03:15:45;5.33;;;4.60;;
12719;SDS011;6424;48.520;11.228;2023-03-23T03:19:02;6.27;;;4.77;;
12719;SDS011;6424;48.520;11.228;2023-03-23T03:21:49;5.80;;;4.67;;
12719;SDS011;6424;48.520;11.228;2023-03-23T03:24:32;5.50;;;4.60;;
12719;SDS011;6424;48.520;11.228;2023-03-23T03:27:15;5.87;;;4.73;;
12719;SDS011;6424;48.520;11.228;2023-03-23T03:29:59;6.87;;;4.83;;
12719;SDS011;6424;48.520;11.228;2023-03-23T03:32:44;6.93;;;4.87;;
12719;SDS011;6424;48.520;11.228;2023-03-23T03:35:14;5.27;;;4.10;;
12719;SDS011;6424;48.520;11.228;2023-03-23T03:37:55;6.07;;;4.37;;
12719;SDS011;6424;48.520;11.228;2023-03-23T03:40:38;6.57;;;4.53;;
12719;SDS011;6424;48.520;11.228;2023-03-23T03:43:19;6.70;;;4.33;;
12719;SDS011;6424;48.520;11.228;2023-03-23T03:46:00;5.00;;;4.20;;
12719;SDS011;6424;48.520;11.228;2023-03-23T03:48:40;9.57;;;4.57;;
12719;SDS011;6424;48.520;11.228;2023-03-23T03:51:21;4.60;;;4.10;;
12719;SDS011;6424;48.520;11.228;2023-03-23T03:53:48;5.87;;;4.83;;
12719;SDS011;6424;48.520;11.228;2023-03-23T03:56:29;5.67;;;4.10;;
12719;SDS011;6424;48.520;11.228;2023-03-23T03:59:11;5.50;;;4.17;;
12719;SDS011;6424;48.520;11.228;2023-03-23T04:01:52;7.50;;;4.30;;
12719;SDS011;6424;48.520;11.228;2023-03-23T04:04:34;4.77;;;4.27;;
12719;SDS011;6424;48.520;11.228;2023-03-23T04:07:15;6.10;;;4.53;;
12719;SDS011;6424;48.520;11.228;2023-03-23T04:09:56;6.07;;;4.63;;
12719;SDS011;6424;48.520;11.228;2023-03-23T04:12:37;5.03;;;4.33;;
12719;SDS011;6424;48.520;11.228;2023-03-23T04:15:18;6.70;;;4.70;;
12719;SDS011;6424;48.520;11.228;2023-03-23T04:17:59;5.07;;;4.53;;
12719;SDS011;6424;48.520;11.228;2023-03-23T04:20:44;6.70;;;4.30;;
12719;SDS011;6424;48.520;11.228;2023-03-23T04:23:27;5.40;;;3.87;;
12719;SDS011;6424;48.520;11.228;2023-03-23T04:25:55;5.77;;;4.33;;
12719;SDS011;6424;48.520;11.228;2023-03-23T04:28:26;5.10;;;3.80;;
12719;SDS011;6424;48.520;11.228;2023-03-23T04:31:07;4.17;;;3.57;;
12719;SDS011;6424;48.520;11.228;2023-03-23T04:33:49;7.80;;;3.87;;
12719;SDS011;6424;48.520;11.228;2023-03-23T04:36:32;4.30;;;3.53;;
12719;SDS011;6424;48.520;11.228;2023-03-23T04:39:15;4.60;;;3.40;;
12719;SDS011;6424;48.520;11.228;2023-03-23T04:41:56;4.10;;;3.40;;
12719;SDS011;6424;48.520;11.228;2023-03-23T04:44:41;5.33;;;3.73;;
12719;SDS011;6424;48.520;11.228;2023-03-23T04:47:24;5.33;;;3.30;;
12719;SDS011;6424;48.520;11.228;2023-03-23T04:50:10;4.10;;;3.20;;
12719;SDS011;6424;48.520;11.228;2023-03-23T04:52:39;3.30;;;2.60;;
12719;SDS011;6424;48.520;11.228;2023-03-23T04:55:25;4.90;;;2.87;;
12719;SDS011;6424;48.520;11.228;2023-03-23T04:58:06;3.83;;;2.50;;
12719;SDS011;6424;48.520;11.228;2023-03-23T05:00:33;3.20;;;2.50;;
12719;SDS011;6424;48.520;11.228;2023-03-23T05:03:16;4.00;;;2.23;;
12719;SDS011;6424;48.520;11.228;2023-03-23T05:05:57;2.73;;;2.00;;
12719;SDS011;6424;48.520;11.228;2023-03-23T05:08:41;2.80;;;2.10;;
12719;SDS011;6424;48.520;11.228;2023-03-23T05:11:06;2.93;;;2.13;;
12719;SDS011;6424;48.520;11.228;2023-03-23T05:13:48;3.50;;;1.97;;
12719;SDS011;6424;48.520;11.228;2023-03-23T05:16:29;4.73;;;1.87;;
12719;SDS011;6424;48.520;11.228;2023-03-23T05:19:10;2.97;;;2.20;;
12719;SDS011;6424;48.520;11.228;2023-03-23T05:21:51;2.23;;;1.80;;
12719;SDS011;6424;48.520;11.228;2023-03-23T05:24:16;2.13;;;1.80;;
12719;SDS011;6424;48.520;11.228;2023-03-23T05:27:00;2.43;;;1.80;;
12719;SDS011;6424;48.520;11.228;2023-03-23T05:29:43;1.97;;;1.77;;
12719;SDS011;6424;48.520;11.228;2023-03-23T05:32:26;2.50;;;2.20;;
12719;SDS011;6424;48.520;11.228;2023-03-23T05:35:09;3.40;;;2.23;;
12719;SDS011;6424;48.520;11.228;2023-03-23T05:37:50;3.57;;;2.10;;
12719;SDS011;6424;48.520;11.228;2023-03-23T05:40:18;2.70;;;2.00;;
12719;SDS011;6424;48.520;11.228;2023-03-23T05:43:00;2.67;;;2.30;;
12719;SDS011;6424;48.520;11.228;2023-03-23T05:45:26;4.20;;;2.77;;
12719;SDS011;6424;48.520;11.228;2023-03-23T05:48:06;3.80;;;2.70;;
12719;SDS011;6424;48.520;11.228;2023-03-23T05:50:49;5.10;;;2.93;;
12719;SDS011;6424;48.520;11.228;2023-03-23T05:53:30;5.07;;;3.30;;
12719;SDS011;6424;48.520;11.228;2023-03-23T05:56:11;3.70;;;2.90;;
12719;SDS011;6424;48.520;11.228;2023-03-23T05:58:54;3.60;;;3.30;;
12719;SDS011;6424;48.520;11.228;2023-03-23T06:01:34;6.63;;;3.53;;
12719;SDS011;6424;48.520;11.228;2023-03-23T06:04:16;4.03;;;3.33;;
12719;SDS011;6424;48.520;11.228;2023-03-23T06:06:57;3.60;;;3.00;;
12719;SDS011;6424;48.520;11.228;2023-03-23T06:09:38;5.53;;;3.33;;
12719;SDS011;6424;48.520;11.228;2023-03-23T06:12:19;5.50;;;3.37;;
12719;SDS011;6424;48.520;11.228;2023-03-23T06:15:00;4.60;;;3.40;;
12719;SDS011;6424;48.520;11.228;2023-03-23T06:17:41;7.00;;;3.70;;
12719;SDS011;6424;48.520;11.228;2023-03-23T06:20:22;8.43;;;4.00;;
12719;SDS011;6424;48.520;11.228;2023-03-23T06:23:04;5.13;;;3.87;;
12719;SDS011;6424;48.520;11.228;2023-03-23T06:25:45;7.03;;;3.10;;
12719;SDS011;6424;48.520;11.228;2023-03-23T06:28:11;3.93;;;3.43;;
12719;SDS011;6424;48.520;11.228;2023-03-23T06:30:52;7.87;;;3.70;;
12719;SDS011;6424;48.520;11.228;2023-03-23T06:33:35;4.70;;;3.73;;
12719;SDS011;6424;48.520;11.228;2023-03-23T06:36:17;4.80;;;3.77;;
12719;SDS011;6424;48.520;11.228;2023-03-23T06:38:59;4.37;;;3.60;;
12719;SDS011;6424;48.520;11.228;2023-03-23T06:41:39;5.13;;;3.50;;
12719;SDS011;6424;48.520;11.228;2023-03-23T06:44:20;3.87;;;3.47;;
12719;SDS011;6424;48.520;11.228;2023-03-23T06:47:01;4.10;;;3.63;;
12719;SDS011;6424;48.520;11.228;2023-03-23T06:49:42;5.03;;;3.50;;
12719;SDS011;6424;48.520;11.228;2023-03-23T06:52:23;4.13;;;3.30;;
12719;SDS011;6424;48.520;11.228;2023-03-23T06:55:05;7.37;;;3.60;;
12719;SDS011;6424;48.520;11.228;2023-03-23T06:57:47;6.83;;;3.57;;
12719;SDS011;6424;48.520;11.228;2023-03-23T07:00:27;4.27;;;3.50;;
12719;SDS011;6424;48.520;11.228;2023-03-23T07:03:09;4.63;;;3.20;;
12719;SDS011;6424;48.520;11.228;2023-03-23T07:05:50;3.07;;;2.77;;
12719;SDS011;6424;48.520;11.228;2023-03-23T07:08:31;6.50;;;3.63;;
12719;SDS011;6424;48.520;11.228;2023-03-23T07:11:12;4.83;;;3.20;;
12719;SDS011;6424;48.520;11.228;2023-03-23T07:13:52;4.67;;;3.50;;
12719;SDS011;6424;48.520;11.228;2023-03-23T07:16:19;4.40;;;3.23;;
12719;SDS011;6424;48.520;11.228;2023-03-23T07:18:59;6.20;;;3.63;;
12719;SDS011;6424;48.520;11.228;2023-03-23T07:21:41;3.50;;;3.10;;
12719;SDS011;6424;48.520;11.228;2023-03-23T07:24:22;5.27;;;3.53;;
12719;SDS011;6424;48.520;11.228;2023-03-23T07:27:03;4.90;;;3.17;;
12719;SDS011;6424;48.520;11.228;2023-03-23T07:29:44;3.83;;;3.20;;
12719;SDS011;6424;48.520;11.228;2023-03-23T07:32:25;2.90;;;2.60;;
12719;SDS011;6424;48.520;11.228;2023-03-23T07:35:06;4.80;;;3.03;;
12719;SDS011;6424;48.520;11.228;2023-03-23T07:37:47;3.60;;;2.77;;
12719;SDS011;6424;48.520;11.228;2023-03-23T07:40:29;3.83;;;3.23;;
12719;SDS011;6424;48.520;11.228;2023-03-23T07:42:58;4.53;;;3.00;;
12719;SDS011;6424;48.520;11.228;2023-03-23T07:45:40;4.63;;;2.70;;
12719;SDS011;6424;48.520;11.228;2023-03-23T07:48:21;4.17;;;3.00;;
12719;SDS011;6424;48.520;11.228;2023-03-23T07:51:02;3.20;;;2.87;;
12719;SDS011;6424;48.520;11.228;2023-03-23T07:53:43;4.23;;;2.80;;
12719;SDS011;6424;48.520;11.228;2023-03-23T07:56:27;6.17;;;3.40;;
12719;SDS011;6424;48.520;11.228;2023-03-23T07:59:08;4.73;;;3.00;;
12719;SDS011;6424;48.520;11.228;2023-03-23T08:01:50;4.37;;;2.73;;
12719;SDS011;6424;48.520;11.228;2023-03-23T08:04:30;3.93;;;3.10;;
12719;SDS011;6424;48.520;11.228;2023-03-23T08:07:17;2.80;;;2.50;;
12719;SDS011;6424;48.520;11.228;2023-03-23T08:09:44;4.53;;;2.47;;
12719;SDS011;6424;48.520;11.228;2023-03-23T08:12:26;3.20;;;2.60;;
12719;SDS011;6424;48.520;11.228;2023-03-23T08:15:08;3.20;;;2.57;;
12719;SDS011;6424;48.520;11.228;2023-03-23T08:17:52;3.80;;;2.67;;
12719;SDS011;6424;48.520;11.228;2023-03-23T08:20:33;4.00;;;2.47;;
12719;SDS011;6424;48.520;11.228;2023-03-23T08:23:15;3.13;;;2.70;;
12719;SDS011;6424;48.520;11.228;2023-03-23T08:25:56;4.57;;;2.70;;
12719;SDS011;6424;48.520;11.228;2023-03-23T08:28:37;3.90;;;2.80;;
12719;SDS011;6424;48.520;11.228;2023-03-23T08:31:18;4.27;;;2.80;;
12719;SDS011;6424;48.520;11.228;2023-03-23T08:33:59;6.23;;;2.47;;
12719;SDS011;6424;48.520;11.228;2023-03-23T08:36:26;2.70;;;2.30;;
12719;SDS011;6424;48.520;11.228;2023-03-23T08:39:07;5.30;;;2.60;;
12719;SDS011;6424;48.520;11.228;2023-03-23T08:41:48;3.20;;;2.90;;
12719;SDS011;6424;48.520;11.228;2023-03-23T08:44:29;7.00;;;2.83;;
12719;SDS011;6424;48.520;11.228;2023-03-23T08:47:10;3.13;;;2.50;;
12719;SDS011;6424;48.520;11.228;2023-03-23T08:49:51;4.33;;;2.90;;
12719;SDS011;6424;48.520;11.228;2023-03-23T08:52:33;3.33;;;2.50;;
12719;SDS011;6424;48.520;11.228;2023-03-23T08:55:16;4.60;;;2.60;;
12719;SDS011;6424;48.520;11.228;2023-03-23T08:57:57;4.93;;;3.30;;
12719;SDS011;6424;48.520;11.228;2023-03-23T09:00:38;5.03;;;2.60;;
12719;SDS011;6424;48.520;11.228;2023-03-23T09:03:05;3.93;;;2.53;;
12719;SDS011;6424;48.520;11.228;2023-03-23T09:05:46;2.70;;;2.50;;
12719;SDS011;6424;48.520;11.228;2023-03-23T09:08:27;6.03;;;2.83;;
12719;SDS011;6424;48.520;11.228;2023-03-23T09:11:09;4.43;;;2.60;;
12719;SDS011;6424;48.520;11.228;2023-03-23T09:13:50;4.83;;;2.80;;
12719;SDS011;6424;48.520;11.228;2023-03-23T09:16:31;7.67;;;2.93;;
12719;SDS011;6424;48.520;11.228;2023-03-23T09:19:12;2.97;;;2.40;;
12719;SDS011;6424;48.520;11.228;2023-03-23T09:21:53;4.23;;;2.60;;
12719;SDS011;6424;48.520;11.228;2023-03-23T09:24:34;4.67;;;2.13;;
12719;SDS011;6424;48.520;11.228;2023-03-23T09:27:15;2.43;;;2.00;;
12719;SDS011;6424;48.520;11.228;2023-03-23T09:29:56;3.13;;;1.93;;
12719;SDS011;6424;48.520;11.228;2023-03-23T09:32:38;2.47;;;2.10;;
12719;SDS011;6424;48.520;11.228;2023-03-23T09:35:05;3.17;;;1.70;;
12719;SDS011;6424;48.520;11.228;2023-03-23T09:37:49;3.37;;;1.70;;
12719;SDS011;6424;48.520;11.228;2023-03-23T09:52:12;2.10;;;1.43;;
12719;SDS011;6424;48.520;11.228;2023-03-23T09:54:55;2.30;;;1.67;;
12719;SDS011;6424;48.520;11.228;2023-03-23T09:58:20;1.93;;;1.53;;
12719;SDS011;6424;48.520;11.228;2023-03-23T10:01:00;5.87;;;1.80;;
12719;SDS011;6424;48.520;11.228;2023-03-23T10:03:46;3.63;;;1.60;;
12719;SDS011;6424;48.520;11.228;2023-03-23T10:06:28;5.47;;;1.80;;
12719;SDS011;6424;48.520;11.228;2023-03-23T10:09:11;4.50;;;1.90;;
12719;SDS011;6424;48.520;11.228;2023-03-23T10:12:00;3.80;;;1.83;;
12719;SDS011;6424;48.520;11.228;2023-03-23T10:20:55;1.93;;;1.60;;
12719;SDS011;6424;48.520;11.228;2023-03-23T10:23:58;2.63;;;1.80;;
12719;SDS011;6424;48.520;11.228;2023-03-23T10:29:59;2.63;;;2.00;;
12719;SDS011;6424;48.520;11.228;2023-03-23T10:32:44;3.07;;;1.60;;
12719;SDS011;6424;48.520;11.228;2023-03-23T10:35:33;4.10;;;1.73;;
12719;SDS011;6424;48.520;11.228;2023-03-23T10:38:23;2.37;;;1.90;;
12719;SDS011;6424;48.520;11.228;2023-03-23T10:41:05;3.37;;;1.87;;
12719;SDS011;6424;48.520;11.228;2023-03-23T10:43:43;2.53;;;1.80;;
12719;SDS011;6424;48.520;11.228;2023-03-23T10:49:25;3.67;;;1.90;;
12719;SDS011;6424;48.520;11.228;2023-03-23T10:55:13;2.77;;;1.80;;
12719;SDS011;6424;48.520;11.228;2023-03-23T10:57:41;2.33;;;1.50;;
12719;SDS011;6424;48.520;11.228;2023-03-23T11:00:25;3.53;;;1.53;;
12719;SDS011;6424;48.520;11.228;2023-03-23T11:03:20;2.30;;;1.60;;
12719;SDS011;6424;48.520;11.228;2023-03-23T11:06:06;4.77;;;1.57;;
12719;SDS011;6424;48.520;11.228;2023-03-23T11:08:56;2.07;;;1.63;;
12719;SDS011;6424;48.520;11.228;2023-03-23T11:11:41;2.10;;;1.60;;
12719;SDS011;6424;48.520;11.228;2023-03-23T11:14:32;2.07;;;1.40;;
12719;SDS011;6424;48.520;11.228;2023-03-23T11:17:27;1.80;;;1.40;;
12719;SDS011;6424;48.520;11.228;2023-03-23T11:20:11;3.17;;;1.50;;
12719;SDS011;6424;48.520;11.228;2023-03-23T11:22:53;2.77;;;1.60;;
12719;SDS011;6424;48.520;11.228;2023-03-23T11:25:20;3.23;;;1.87;;
12719;SDS011;6424;48.520;11.228;2023-03-23T11:28:01;2.73;;;1.50;;
12719;SDS011;6424;48.520;11.228;2023-03-23T11:30:42;3.87;;;1.60;;
12719;SDS011;6424;48.520;11.228;2023-03-23T11:33:23;2.87;;;1.37;;
12719;SDS011;6424;48.520;11.228;2023-03-23T11:36:05;1.77;;;1.40;;
12719;SDS011;6424;48.520;11.228;2023-03-23T11:38:47;2.17;;;1.43;;
12719;SDS011;6424;48.520;11.228;2023-03-23T11:41:31;2.33;;;1.23;;
12719;SDS011;6424;48.520;11.228;2023-03-23T11:44:14;2.70;;;1.40;;
12719;SDS011;6424;48.520;11.228;2023-03-23T11:58:25;2.10;;;1.40;;
12719;SDS011;6424;48.520;11.228;2023-03-23T12:01:36;3.00;;;1.33;;
12719;SDS011;6424;48.520;11.228;2023-03-23T12:07:43;3.30;;;1.67;;
12719;SDS011;6424;48.520;11.228;2023-03-23T12:13:45;1.97;;;1.40;;
12719;SDS011;6424;48.520;11.228;2023-03-23T12:22:29;2.43;;;1.60;;
12719;SDS011;6424;48.520;11.228;2023-03-23T12:25:20;1.80;;;1.43;;
12719;SDS011;6424;48.520;11.228;2023-03-23T12:37:10;3.60;;;1.60;;
12719;SDS011;6424;48.520;11.228;2023-03-23T12:40:06;1.73;;;1.57;;
12719;SDS011;6424;48.520;11.228;2023-03-23T12:43:12;3.60;;;1.40;;
12719;SDS011;6424;48.520;11.228;2023-03-23T12:51:44;4.10;;;1.80;;
12719;SDS011;6424;48.520;11.228;2023-03-23T12:55:05;1.50;;;1.40;;
12719;SDS011;6424;48.520;11.228;2023-03-23T12:58:05;2.70;;;1.63;;
12719;SDS011;6424;48.520;11.228;2023-03-23T13:06:53;1.70;;;1.60;;
12719;SDS011;6424;48.520;11.228;2023-03-23T13:12:33;2.13;;;1.60;;
12719;SDS011;6424;48.520;11.228;2023-03-23T13:15:34;3.33;;;2.33;;
12719;SDS011;6424;48.520;11.228;2023-03-23T13:18:38;3.40;;;1.50;;
12719;SDS011;6424;48.520;11.228;2023-03-23T13:21:31;2.70;;;2.00;;
12719;SDS011;6424;48.520;11.228;2023-03-23T13:24:01;2.43;;;2.00;;
12719;SDS011;6424;48.520;11.228;2023-03-23T13:26:46;3.03;;;1.67;;
12719;SDS011;6424;48.520;11.228;2023-03-23T13:29:30;3.90;;;1.57;;
12719;SDS011;6424;48.520;11.228;2023-03-23T13:32:04;3.03;;;1.73;;
12719;SDS011;6424;48.520;11.228;2023-03-23T13:34:55;2.10;;;1.73;;
12719;SDS011;6424;48.520;11.228;2023-03-23T13:37:40;2.10;;;1.87;;
12719;SDS011;6424;48.520;11.228;2023-03-23T13:40:26;2.53;;;1.70;;
12719;SDS011;6424;48.520;11.228;2023-03-23T13:43:09;2.97;;;1.80;;
12719;SDS011;6424;48.520;11.228;2023-03-23T13:45:46;2.77;;;1.90;;
12719;SDS011;6424;48.520;11.228;2023-03-23T13:48:28;3.07;;;1.70;;
12719;SDS011;6424;48.520;11.228;2023-03-23T13:54:40;2.97;;;1.40;;
12719;SDS011;6424;48.520;11.228;2023-03-23T13:57:33;2.37;;;1.40;;
12719;SDS011;6424;48.520;11.228;2023-03-23T14:08:41;1.80;;;1.50;;
12719;SDS011;6424;48.520;11.228;2023-03-23T14:11:24;2.93;;;1.47;;
12719;SDS011;6424;48.520;11.228;2023-03-23T14:14:18;2.17;;;1.33;;
12719;SDS011;6424;48.520;11.228;2023-03-23T14:20:10;2.67;;;1.47;;
12719;SDS011;6424;48.520;11.228;2023-03-23T14:22:53;3.87;;;1.67;;
12719;SDS011;6424;48.520;11.228;2023-03-23T14:25:20;1.83;;;1.63;;
12719;SDS011;6424;48.520;11.228;2023-03-23T14:27:47;2.50;;;1.50;;
12719;SDS011;6424;48.520;11.228;2023-03-23T14:30:35;2.47;;;1.43;;
12719;SDS011;6424;48.520;11.228;2023-03-23T14:33:16;3.87;;;1.50;;
12719;SDS011;6424;48.520;11.228;2023-03-23T14:35:59;1.97;;;1.80;;
12719;SDS011;6424;48.520;11.228;2023-03-23T14:38:40;2.00;;;1.63;;
12719;SDS011;6424;48.520;11.228;2023-03-23T14:41:21;3.17;;;1.67;;
12719;SDS011;6424;48.520;11.228;2023-03-23T14:44:03;2.70;;;1.40;;
12719;SDS011;6424;48.520;11.228;2023-03-23T14:46:47;2.90;;;1.80;;
12719;SDS011;6424;48.520;11.228;2023-03-23T14:49:30;2.70;;;1.50;;
12719;SDS011;6424;48.520;11.228;2023-03-23T14:52:15;1.77;;;1.40;;
12719;SDS011;6424;48.520;11.228;2023-03-23T14:55:10;3.33;;;1.60;;
12719;SDS011;6424;48.520;11.228;2023-03-23T14:58:05;2.37;;;1.40;;
12719;SDS011;6424;48.520;11.228;2023-03-23T15:06:53;2.87;;;1.80;;
12719;SDS011;6424;48.520;11.228;2023-03-23T15:09:24;2.47;;;1.60;;
12719;SDS011;6424;48.520;11.228;2023-03-23T15:12:05;4.40;;;1.90;;
12719;SDS011;6424;48.520;11.228;2023-03-23T15:14:47;2.43;;;1.70;;
12719;SDS011;6424;48.520;11.228;2023-03-23T15:17:31;4.23;;;1.80;;
12719;SDS011;6424;48.520;11.228;2023-03-23T15:20:24;2.87;;;1.40;;
12719;SDS011;6424;48.520;11.228;2023-03-23T15:23:08;1.60;;;1.43;;
12719;SDS011;6424;48.520;11.228;2023-03-23T15:26:06;4.40;;;2.10;;
12719;SDS011;6424;48.520;11.228;2023-03-23T15:29:00;4.10;;;1.40;;
12719;SDS011;6424;48.520;11.228;2023-03-23T15:31:54;3.73;;;1.63;;
12719;SDS011;6424;48.520;11.228;2023-03-23T15:34:36;2.63;;;1.60;;
12719;SDS011;6424;48.520;11.228;2023-03-23T15:37:29;3.17;;;1.83;;
12719;SDS011;6424;48.520;11.228;2023-03-23T15:40:15;4.67;;;3.40;;
12719;SDS011;6424;48.520;11.228;2023-03-23T15:43:08;2.57;;;2.00;;
12719;SDS011;6424;48.520;11.228;2023-03-23T15:48:54;3.63;;;2.00;;
12719;SDS011;6424;48.520;11.228;2023-03-23T15:51:49;3.03;;;2.20;;
12719;SDS011;6424;48.520;11.228;2023-03-23T15:54:30;2.90;;;1.93;;
12719;SDS011;6424;48.520;11.228;2023-03-23T15:57:12;3.80;;;2.80;;
12719;SDS011;6424;48.520;11.228;2023-03-23T15:59:53;3.37;;;2.00;;
12719;SDS011;6424;48.520;11.228;2023-03-23T16:02:33;5.57;;;3.00;;
12719;SDS011;6424;48.520;11.228;2023-03-23T16:05:15;6.70;;;4.90;;
12719;SDS011;6424;48.520;11.228;2023-03-23T16:07:56;2.87;;;2.20;;
12719;SDS011;6424;48.520;11.228;2023-03-23T16:10:37;3.90;;;2.63;;
12719;SDS011;6424;48.520;11.228;2023-03-23T16:13:18;4.97;;;2.87;;
12719;SDS011;6424;48.520;11.228;2023-03-23T16:15:59;5.80;;;4.67;;
12719;SDS011;6424;48.520;11.228;2023-03-23T16:18:40;4.13;;;3.53;;
12719;SDS011;6424;48.520;11.228;2023-03-23T16:21:21;4.30;;;3.00;;
12719;SDS011;6424;48.520;11.228;2023-03-23T16:24:02;4.17;;;2.67;;
12719;SDS011;6424;48.520;11.228;2023-03-23T16:26:42;2.77;;;2.10;;
12719;SDS011;6424;48.520;11.228;2023-03-23T16:29:23;2.93;;;2.40;;
12719;SDS011;6424;48.520;11.228;2023-03-23T16:31:49;2.87;;;2.23;;
12719;SDS011;6424;48.520;11.228;2023-03-23T16:34:30;5.40;;;2.70;;
12719;SDS011;6424;48.520;11.228;2023-03-23T16:37:12;3.60;;;1.87;;
12719;SDS011;6424;48.520;11.228;2023-03-23T16:39:53;2.43;;;2.00;;
12719;SDS011;6424;48.520;11.228;2023-03-23T16:42:34;6.13;;;2.30;;
12719;SDS011;6424;48.520;11.228;2023-03-23T16:45:15;3.57;;;2.50;;
12719;SDS011;6424;48.520;11.228;2023-03-23T16:47:57;4.50;;;2.53;;
12719;SDS011;6424;48.520;11.228;2023-03-23T16:50:40;3.87;;;1.90;;
12719;SDS011;6424;48.520;11.228;2023-03-23T16:53:22;2.40;;;2.20;;
12719;SDS011;6424;48.520;11.228;2023-03-23T16:56:04;3.23;;;2.47;;
12719;SDS011;6424;48.520;11.228;2023-03-23T16:58:45;3.43;;;2.10;;
12719;SDS011;6424;48.520;11.228;2023-03-23T17:01:25;3.67;;;2.10;;
12719;SDS011;6424;48.520;11.228;2023-03-23T17:04:06;3.97;;;2.30;;
12719;SDS011;6424;48.520;11.228;2023-03-23T17:06:47;3.30;;;2.20;;
12719;SDS011;6424;48.520;11.228;2023-03-23T17:09:28;5.73;;;3.40;;
12719;SDS011;6424;48.520;11.228;2023-03-23T17:12:08;8.20;;;4.77;;
12719;SDS011;6424;48.520;11.228;2023-03-23T17:14:35;2.80;;;2.50;;
12719;SDS011;6424;48.520;11.228;2023-03-23T17:17:16;4.03;;;2.93;;
12719;SDS011;6424;48.520;11.228;2023-03-23T17:19:56;3.80;;;2.70;;
12719;SDS011;6424;48.520;11.228;2023-03-23T17:22:38;5.50;;;4.17;;
12719;SDS011;6424;48.520;11.228;2023-03-23T17:25:19;6.60;;;5.10;;
12719;SDS011;6424;48.520;11.228;2023-03-23T17:28:00;5.53;;;2.73;;
12719;SDS011;6424;48.520;11.228;2023-03-23T17:30:42;5.23;;;3.37;;
12719;SDS011;6424;48.520;11.228;2023-03-23T17:33:23;3.13;;;2.60;;
12719;SDS011;6424;48.520;11.228;2023-03-23T17:35:49;4.23;;;3.03;;
12719;SDS011;6424;48.520;11.228;2023-03-23T17:38:30;3.63;;;3.23;;
12719;SDS011;6424;48.520;11.228;2023-03-23T17:41:11;3.77;;;2.83;;
12719;SDS011;6424;48.520;11.228;2023-03-23T17:43:52;2.93;;;2.50;;
12719;SDS011;6424;48.520;11.228;2023-03-23T17:46:33;3.53;;;2.60;;
12719;SDS011;6424;48.520;11.228;2023-03-23T17:49:14;5.83;;;2.97;;
12719;SDS011;6424;48.520;11.228;2023-03-23T17:51:58;3.60;;;3.07;;
12719;SDS011;6424;48.520;11.228;2023-03-23T17:54:39;4.70;;;3.43;;
12719;SDS011;6424;48.520;11.228;2023-03-23T17:57:20;3.70;;;2.87;;
12719;SDS011;6424;48.520;11.228;2023-03-23T18:00:01;2.60;;;2.20;;
12719;SDS011;6424;48.520;11.228;2023-03-23T18:02:43;3.03;;;2.57;;
12719;SDS011;6424;48.520;11.228;2023-03-23T18:05:24;3.13;;;2.67;;
12719;SDS011;6424;48.520;11.228;2023-03-23T18:08:07;3.13;;;2.50;;
12719;SDS011;6424;48.520;11.228;2023-03-23T18:10:48;3.50;;;2.37;;
12719;SDS011;6424;48.520;11.228;2023-03-23T18:13:32;2.97;;;2.40;;
12719;SDS011;6424;48.520;11.228;2023-03-23T18:16:13;3.93;;;2.50;;
12719;SDS011;6424;48.520;11.228;2023-03-23T18:18:54;3.70;;;3.03;;
12719;SDS011;6424;48.520;11.228;2023-03-23T18:21:35;3.27;;;2.83;;
12719;SDS011;6424;48.520;11.228;2023-03-23T18:24:16;4.93;;;2.67;;